Time;durP1;ratioP1;P1;durP2;ratioP2;P2;SDS_P1;SDS_P2;PMS_P1;PMS_P2;Temp;Humidity;BMP_temperature;BMP_pressure;BME280_temperature;BME280_humidity;BME280_pressure;Samples;Min_cycle;Max_cycle;Signal;HPM_P1;HPM_P2
2022/08/09 00:01:48;;;;;;;7.40;5.10;;;;;;;20.28;71.31;101115.42;1698779;83;21116;-59
2022/08/09 00:04:18;;;;;;;7.55;5.40;;;;;;;20.26;71.48;101119.59;1700603;82;21086;-60
2022/08/09 00:06:45;;;;;;;8.95;4.75;;;;;;;20.25;71.56;101113.91;1708724;81;21078;-60
2022/08/09 00:09:12;;;;;;;7.05;4.70;;;;;;;20.27;71.47;101108.40;1725141;81;21106;-60
2022/08/09 00:11:39;;;;;;;6.70;4.80;;;;;;;20.29;71.47;101109.05;1716739;82;21110;-59
2022/08/09 00:14:06;;;;;;;7.35;5.55;;;;;;;20.31;71.49;101113.72;1729490;82;21136;-60
2022/08/09 00:16:32;;;;;;;7.85;4.65;;;;;;;20.31;71.36;101114.58;1701901;82;21095;-60
2022/08/09 00:18:59;;;;;;;7.40;4.80;;;;;;;20.27;71.48;101120.42;1694639;82;21586;-60
2022/08/09 00:21:26;;;;;;;6.62;4.53;;;;;;;20.23;71.67;101117.25;1703056;82;22176;-60
2022/08/09 00:23:54;;;;;;;7.50;4.65;;;;;;;20.23;71.87;101110.06;1707412;82;21271;-60
2022/08/09 00:26:21;;;;;;;7.53;4.62;;;;;;;20.26;71.94;101112.92;1709611;82;21098;-60
2022/08/09 00:28:47;;;;;;;10.43;5.42;;;;;;;20.30;72.12;101102.20;1714870;82;21066;-60
2022/08/09 00:31:14;;;;;;;6.90;5.25;;;;;;;20.32;72.16;101103.38;1722963;81;21106;-60
2022/08/09 00:33:42;;;;;;;10.88;5.08;;;;;;;20.29;72.23;101105.91;1715676;81;21129;-60
2022/08/09 00:36:10;;;;;;;8.05;5.53;;;;;;;20.26;72.48;101110.24;1706339;82;21150;-60
2022/08/09 00:38:38;;;;;;;6.72;4.70;;;;;;;20.28;72.54;101112.23;1712080;82;21069;-60
2022/08/09 00:41:06;;;;;;;8.13;5.30;;;;;;;20.35;72.31;101113.73;1715909;82;21035;-60
2022/08/09 00:43:35;;;;;;;8.10;5.58;;;;;;;20.37;72.07;101110.38;1712440;83;21050;-60
2022/08/09 00:46:01;;;;;;;9.25;6.60;;;;;;;20.35;71.94;101113.22;1707902;81;21292;-60
2022/08/09 00:48:28;;;;;;;10.58;5.45;;;;;;;20.29;71.92;101111.25;1709041;81;21792;-60
2022/08/09 00:50:54;;;;;;;10.28;5.95;;;;;;;20.22;71.84;101115.58;1706873;83;21612;-60
2022/08/09 00:53:21;;;;;;;7.00;5.12;;;;;;;20.14;72.01;101107.08;1717325;82;21078;-60
2022/08/09 00:55:47;;;;;;;7.67;5.72;;;;;;;20.13;72.21;101117.42;1713358;81;21086;-60
2022/08/09 00:58:14;;;;;;;8.68;5.90;;;;;;;20.10;72.21;101117.75;1699645;82;21180;-60
2022/08/09 01:00:41;;;;;;;9.28;5.83;;;;;;;20.08;72.48;101116.27;1699778;82;21902;-61
2022/08/09 01:03:16;;;;;;;9.48;5.65;;;;;;;20.10;72.62;101124.43;1695029;83;21578;-60
2022/08/09 01:06:10;;;;;;;8.95;6.05;;;;;;;20.07;72.65;101122.09;1718293;82;21073;-60
2022/08/09 01:09:06;;;;;;;8.10;5.83;;;;;;;20.09;72.69;101117.44;1700607;82;21069;-59
2022/08/09 01:11:52;;;;;;;8.68;5.97;;;;;;;20.11;72.60;101113.27;1692998;82;21549;-59
2022/08/09 01:14:33;;;;;;;9.40;6.45;;;;;;;20.13;72.73;101109.92;1718215;82;21157;-60
2022/08/09 01:17:05;;;;;;;8.75;6.37;;;;;;;20.09;72.90;101108.09;1702979;83;21311;-60
2022/08/09 01:19:43;;;;;;;8.13;5.70;;;;;;;20.05;73.07;101113.41;1734049;81;21092;-60
2022/08/09 01:22:37;;;;;;;9.08;5.30;;;;;;;20.00;73.19;101112.57;1708912;82;21114;-60
2022/08/09 01:25:28;;;;;;;11.57;6.05;;;;;;;19.98;73.15;101112.42;1724881;81;20984;-60
2022/08/09 01:27:55;;;;;;;8.03;5.10;;;;;;;20.01;73.13;101115.59;1740019;81;21252;-60
2022/08/09 01:30:24;;;;;;;8.18;5.58;;;;;;;20.00;73.18;101109.91;1695626;83;21091;-60
2022/08/09 01:32:50;;;;;;;7.85;5.12;;;;;;;19.99;73.12;101110.09;1711125;83;21032;-60
2022/08/09 01:35:29;;;;;;;6.90;5.05;;;;;;;19.96;73.20;101113.92;1690104;83;21491;-60
2022/08/09 01:37:57;;;;;;;7.08;5.08;;;;;;;19.90;73.07;101119.09;1711652;82;21509;-60
2022/08/09 01:40:24;;;;;;;7.72;4.97;;;;;;;19.85;72.84;101112.91;1723709;81;21172;-59
2022/08/09 01:42:50;;;;;;;8.10;5.72;;;;;;;19.82;72.90;101107.89;1706900;82;21137;-60
2022/08/09 01:45:17;;;;;;;6.78;5.25;;;;;;;19.82;72.98;101114.56;1696883;82;21105;-60
2022/08/09 01:47:44;;;;;;;8.23;5.42;;;;;;;19.83;73.03;101113.07;1695553;82;21111;-60
2022/08/09 01:50:11;;;;;;;7.97;5.15;;;;;;;19.81;73.19;101109.73;1694859;81;21090;-59
2022/08/09 01:52:38;;;;;;;8.08;5.35;;;;;;;19.78;73.38;101114.58;1707211;81;21258;-60
2022/08/09 01:55:06;;;;;;;7.75;5.67;;;;;;;19.78;73.27;101112.73;1696078;81;21169;-60
2022/08/09 01:57:37;;;;;;;7.60;5.75;;;;;;;19.80;73.40;101113.91;1706953;82;21062;-60
2022/08/09 02:00:07;;;;;;;8.20;5.60;;;;;;;19.82;73.31;101114.09;1705981;82;21101;-60
2022/08/09 02:02:39;;;;;;;8.43;6.25;;;;;;;19.85;73.35;101119.58;1681725;83;21112;-60
2022/08/09 02:05:09;;;;;;;8.00;5.28;;;;;;;19.86;73.17;101122.09;1700101;82;21235;-60
2022/08/09 02:07:40;;;;;;;8.25;4.92;;;;;;;19.83;73.11;101132.27;1726012;81;21537;-47
2022/08/09 02:10:18;;;;;;;8.15;5.22;;;;;;;19.79;73.15;101125.09;1707370;82;21543;-46
2022/08/09 02:12:45;;;;;;;7.33;4.72;;;;;;;19.74;73.06;101123.90;1729005;82;21043;-46
2022/08/09 02:15:12;;;;;;;8.70;5.53;;;;;;;19.71;73.08;101121.05;1694613;83;21538;-47
2022/08/09 02:17:39;;;;;;;7.30;4.87;;;;;;;19.74;73.06;101123.39;1701443;83;21145;-47
2022/08/09 02:20:07;;;;;;;7.40;4.85;;;;;;;19.70;73.07;101120.70;1693097;83;21084;-46
2022/08/09 02:22:43;;;;;;;7.28;4.92;;;;;;;19.64;73.17;101118.70;1729732;81;21058;-46
2022/08/09 02:25:19;;;;;;;6.53;4.42;;;;;;;19.58;73.27;101118.02;1714137;82;21114;-48
2022/08/09 02:27:56;;;;;;;6.75;4.22;;;;;;;19.59;73.39;101111.69;1714742;81;21054;-47
2022/08/09 02:30:23;;;;;;;7.15;4.97;;;;;;;19.59;73.41;101103.69;1741848;81;21136;-47
2022/08/09 02:32:50;;;;;;;8.48;4.83;;;;;;;19.60;73.57;101107.53;1712284;82;21383;-47
2022/08/09 02:35:22;;;;;;;8.95;5.00;;;;;;;19.62;73.64;101113.53;1704189;83;21087;-46
2022/08/09 02:37:51;;;;;;;7.15;4.78;;;;;;;19.61;73.77;101117.70;1693782;83;21099;-46
2022/08/09 02:40:17;;;;;;;7.78;4.60;;;;;;;19.61;73.62;101120.36;1708201;83;21071;-47
2022/08/09 02:42:45;;;;;;;6.00;3.90;;;;;;;19.60;73.56;101116.02;1721269;82;21080;-46
2022/08/09 02:45:32;;;;;;;6.97;4.70;;;;;;;19.61;73.58;101121.70;1702483;82;21093;-46
2022/08/09 02:48:04;;;;;;;7.55;4.62;;;;;;;19.62;73.56;101125.55;1710843;82;21078;-45
2022/08/09 02:50:41;;;;;;;6.70;4.62;;;;;;;19.60;73.79;101130.70;1737976;81;21635;-45
2022/08/09 02:53:17;;;;;;;6.35;4.12;;;;;;;19.59;73.80;101132.54;1704039;83;21103;-46
2022/08/09 02:55:43;;;;;;;6.00;4.37;;;;;;;19.60;73.67;101132.89;1711948;82;21162;-45
2022/08/09 02:58:10;;;;;;;7.22;4.55;;;;;;;19.64;73.60;101139.55;1703570;82;21173;-45
2022/08/09 03:00:38;;;;;;;6.87;4.65;;;;;;;19.67;73.43;101141.08;1724690;81;21105;-46
2022/08/09 03:03:04;;;;;;;6.35;4.42;;;;;;;19.71;73.27;101145.08;1688356;82;21097;-46
2022/08/09 03:05:31;;;;;;;9.40;4.40;;;;;;;19.74;73.17;101144.75;1704545;82;21053;-45
2022/08/09 03:08:00;;;;;;;7.62;4.65;;;;;;;19.75;73.04;101151.77;1707909;82;21144;-46
2022/08/09 03:10:26;;;;;;;7.05;4.17;;;;;;;19.79;73.07;101141.63;1702484;82;21088;-45
2022/08/09 03:12:53;;;;;;;6.78;4.10;;;;;;;19.82;72.50;101146.61;1704972;82;21101;-45
2022/08/09 03:15:19;;;;;;;6.70;4.28;;;;;;;19.80;72.25;101144.14;1709350;82;21145;-45
2022/08/09 03:17:46;;;;;;;9.10;4.42;;;;;;;19.77;72.27;101146.27;1706505;82;21085;-45
2022/08/09 03:20:12;;;;;;;5.80;3.92;;;;;;;19.72;72.30;101144.09;1709832;82;21143;-46
2022/08/09 03:22:39;;;;;;;6.80;4.35;;;;;;;19.70;72.49;101146.06;1702345;83;21089;-45
2022/08/09 03:25:11;;;;;;;8.75;3.75;;;;;;;19.70;72.37;101141.23;1705184;82;21185;-45
2022/08/09 03:27:41;;;;;;;8.75;4.58;;;;;;;19.73;72.32;101140.40;1709422;82;21702;-46
2022/08/09 03:30:10;;;;;;;6.87;4.53;;;;;;;19.77;72.35;101135.11;1712033;82;21003;-46
2022/08/09 03:32:37;;;;;;;6.90;4.25;;;;;;;19.80;72.33;101131.27;1713821;82;21868;-46
2022/08/09 03:35:04;;;;;;;6.15;4.33;;;;;;;19.83;72.51;101133.61;1707550;82;21571;-46
2022/08/09 03:37:31;;;;;;;6.97;3.90;;;;;;;19.83;72.30;101130.42;1706294;82;21043;-45
2022/08/09 03:39:59;;;;;;;8.85;4.00;;;;;;;19.89;72.13;101142.78;1685558;82;21112;-46
2022/08/09 03:42:25;;;;;;;6.37;4.08;;;;;;;19.96;71.92;101145.97;1705876;82;21125;-46
2022/08/09 03:44:52;;;;;;;7.22;4.37;;;;;;;20.03;71.62;101148.30;1710374;82;21133;-46
2022/08/09 03:47:19;;;;;;;6.37;3.95;;;;;;;20.05;71.04;101142.80;1703612;82;21054;-46
2022/08/09 03:49:45;;;;;;;5.97;4.12;;;;;;;20.02;70.94;101146.66;1712108;82;21165;-46
2022/08/09 03:52:12;;;;;;;6.17;3.67;;;;;;;19.99;70.96;101144.31;1717714;82;21117;-46
2022/08/09 03:54:39;;;;;;;7.30;4.15;;;;;;;19.99;71.00;101144.82;1715426;82;21066;-45
2022/08/09 03:57:10;;;;;;;7.37;3.67;;;;;;;20.03;70.61;101144.81;1716897;82;21113;-46
2022/08/09 03:59:37;;;;;;;7.60;4.47;;;;;;;20.03;70.29;101143.47;1698100;82;21014;-46
2022/08/09 04:02:06;;;;;;;6.75;4.42;;;;;;;20.02;70.35;101144.47;1715319;82;21071;-46
2022/08/09 04:04:32;;;;;;;7.20;3.85;;;;;;;20.02;70.45;101144.47;1710762;82;21181;-46
2022/08/09 04:07:00;;;;;;;7.33;3.75;;;;;;;19.99;70.51;101146.98;1709269;82;21577;-46
2022/08/09 04:09:26;;;;;;;6.33;3.87;;;;;;;19.97;70.69;101147.66;1715393;82;21160;-46
2022/08/09 04:12:17;;;;;;;6.22;3.95;;;;;;;19.98;70.64;101135.13;1704362;82;21105;-46
2022/08/09 04:14:43;;;;;;;7.42;3.72;;;;;;;20.04;70.38;101134.47;1710009;82;21010;-45
2022/08/09 04:17:10;;;;;;;6.62;3.72;;;;;;;20.08;70.37;101134.45;1704630;82;21038;-46
2022/08/09 04:19:36;;;;;;;7.08;3.75;;;;;;;20.13;70.17;101143.31;1707505;82;21259;-47
2022/08/09 04:22:03;;;;;;;6.08;3.50;;;;;;;20.11;70.26;101142.14;1698590;82;21110;-46
2022/08/09 04:24:30;;;;;;;5.75;3.52;;;;;;;20.09;70.18;101137.48;1704559;82;21073;-46
2022/08/09 04:26:57;;;;;;;8.00;3.83;;;;;;;20.10;69.97;101146.31;1699130;82;21074;-46
2022/08/09 04:29:23;;;;;;;5.20;3.25;;;;;;;20.14;69.99;101143.15;1701676;82;21078;-45
2022/08/09 04:31:52;;;;;;;5.90;3.62;;;;;;;20.18;69.58;101141.80;1707743;82;21123;-46
2022/08/09 04:58:05;;;;;;;5.87;3.10;;;;;;;20.81;66.90;101121.17;1856893;76;22635;-45
2022/08/09 05:00:33;;;;;;;5.95;2.95;;;;;;;20.72;66.76;101121.71;1822475;77;20986;-45
2022/08/09 05:03:02;;;;;;;4.80;3.25;;;;;;;20.70;66.91;101119.72;1821063;78;21753;-49
2022/08/09 05:05:29;;;;;;;6.60;3.20;;;;;;;20.70;66.75;101124.55;1779824;78;21006;-46
2022/08/09 05:07:56;;;;;;;5.75;2.70;;;;;;;20.67;66.87;101133.42;1761204;79;21090;-46
2022/08/09 05:10:22;;;;;;;5.37;2.83;;;;;;;20.61;66.95;101129.57;1750960;80;21050;-46
2022/08/09 05:12:49;;;;;;;4.30;2.20;;;;;;;20.63;66.71;101130.73;1780681;78;21020;-46
2022/08/09 05:15:16;;;;;;;5.08;2.75;;;;;;;20.69;66.78;101139.43;1760153;80;21136;-46
2022/08/09 05:17:43;;;;;;;7.20;2.72;;;;;;;20.71;67.24;101136.08;1741745;81;20979;-46
2022/08/09 05:20:10;;;;;;;4.97;2.85;;;;;;;20.76;67.27;101139.06;1763978;79;20987;-48
2022/08/09 05:22:37;;;;;;;5.53;3.08;;;;;;;20.82;67.00;101137.56;1765602;80;21054;-46
2022/08/09 05:25:05;;;;;;;6.92;2.87;;;;;;;20.86;67.00;101138.87;1782823;80;21011;-48
2022/08/09 05:27:32;;;;;;;4.45;2.40;;;;;;;20.89;66.43;101142.55;1778209;79;21752;-47
2022/08/09 05:29:58;;;;;;;6.25;2.42;;;;;;;20.91;66.52;101142.73;1757552;79;21551;-46
2022/08/09 05:32:25;;;;;;;4.90;2.50;;;;;;;20.99;66.37;101145.03;1761031;80;21029;-46
2022/08/09 05:34:52;;;;;;;4.90;2.40;;;;;;;21.03;65.71;101149.88;1769563;79;21354;-47
2022/08/09 05:37:18;;;;;;;5.28;2.50;;;;;;;21.05;65.53;101151.04;1780175;79;21112;-46
2022/08/09 05:39:45;;;;;;;4.80;2.27;;;;;;;21.04;65.48;101148.84;1773590;79;21730;-46
2022/08/09 05:42:12;;;;;;;5.55;2.35;;;;;;;21.06;65.45;101142.81;1779873;79;21459;-47
2022/08/09 05:44:39;;;;;;;3.83;1.82;;;;;;;21.14;64.91;101141.95;1782339;79;21042;-46
2022/08/09 05:47:05;;;;;;;5.45;2.15;;;;;;;21.23;65.21;101142.75;1752674;80;21077;-46
2022/08/09 05:49:32;;;;;;;4.58;2.17;;;;;;;21.31;64.60;101138.70;1754271;80;21062;-47
2022/08/09 05:51:59;;;;;;;6.70;3.35;;;;;;;21.40;64.44;101144.36;1780601;79;21145;-46
2022/08/09 05:54:25;;;;;;;5.12;1.75;;;;;;;21.47;64.30;101145.86;1770925;80;21051;-47
2022/08/09 05:56:52;;;;;;;4.22;1.85;;;;;;;21.51;63.34;101149.83;1755873;79;21058;-46
2022/08/09 05:59:20;;;;;;;3.85;1.75;;;;;;;21.52;63.09;101153.68;1759964;79;21090;-46
2022/08/09 06:01:47;;;;;;;8.65;2.17;;;;;;;21.54;63.00;101147.33;1774255;79;21514;-47
2022/08/09 06:04:13;;;;;;;3.75;1.70;;;;;;;21.61;62.68;101146.42;1784127;80;21290;-47
2022/08/09 06:06:40;;;;;;;6.45;1.85;;;;;;;21.71;62.71;101149.70;1781474;80;21057;-46
2022/08/09 06:09:06;;;;;;;4.17;1.70;;;;;;;21.81;62.36;101148.66;1779766;78;21061;-47
2022/08/09 06:11:33;;;;;;;6.62;2.37;;;;;;;21.88;62.30;101145.58;1781139;78;21077;-47
2022/08/09 06:13:59;;;;;;;4.78;2.10;;;;;;;21.96;61.52;101140.16;1782506;79;21049;-46
2022/08/09 06:16:26;;;;;;;3.58;1.75;;;;;;;22.06;61.43;101138.58;1784377;78;21146;-47
2022/08/09 06:18:52;;;;;;;3.65;1.60;;;;;;;22.12;60.08;101138.36;1765395;78;21029;-48
2022/08/09 06:21:19;;;;;;;4.60;1.45;;;;;;;22.12;59.92;101144.54;1776256;78;20970;-46
2022/08/09 06:23:46;;;;;;;2.95;1.32;;;;;;;22.16;59.57;101145.04;1785211;79;21030;-47
2022/08/09 06:26:16;;;;;;;5.85;1.52;;;;;;;22.19;59.42;101147.33;1769425;78;21089;-49
2022/08/09 06:28:42;;;;;;;6.00;1.77;;;;;;;22.29;59.01;101153.82;1776331;78;21119;-46
2022/08/09 06:31:09;;;;;;;3.45;1.62;;;;;;;22.41;58.10;101156.41;1775061;78;21081;-46
2022/08/09 06:33:35;;;;;;;4.78;1.42;;;;;;;22.45;55.86;101157.19;1783835;79;21509;-47
2022/08/09 06:36:04;;;;;;;3.62;1.37;;;;;;;22.46;55.04;101154.02;1780828;78;21104;-46
2022/08/09 06:38:31;;;;;;;4.12;1.70;;;;;;;22.44;54.25;101155.53;1785348;79;21115;-47
2022/08/09 06:40:57;;;;;;;2.98;1.20;;;;;;;22.46;54.58;101162.06;1775107;79;21363;-46
2022/08/09 06:43:24;;;;;;;4.62;1.80;;;;;;;22.52;54.93;101165.33;1784222;80;21097;-46
2022/08/09 06:45:50;;;;;;;3.85;1.55;;;;;;;22.57;54.99;101158.09;1785004;79;21012;-46
2022/08/09 06:48:16;;;;;;;4.03;1.75;;;;;;;22.57;55.03;101163.45;1783955;78;21019;-46
2022/08/09 06:50:43;;;;;;;5.67;2.05;;;;;;;22.54;54.86;101160.61;1786862;79;21043;-46
2022/08/09 06:53:10;;;;;;;4.20;1.60;;;;;;;22.48;55.05;101160.51;1786083;80;21114;-46
2022/08/09 06:55:36;;;;;;;3.52;1.52;;;;;;;22.44;55.63;101164.92;1765006;78;21077;-45
2022/08/09 06:58:03;;;;;;;3.42;1.22;;;;;;;22.52;54.93;101157.80;1776104;80;21041;-46
2022/08/09 07:00:34;;;;;;;3.70;1.55;;;;;;;22.57;54.50;101162.11;1784286;78;21488;-46
2022/08/09 07:03:00;;;;;;;3.45;1.35;;;;;;;22.61;53.79;101159.37;1768313;79;20994;-46
2022/08/09 07:05:26;;;;;;;4.90;1.47;;;;;;;22.66;53.11;101150.27;1764918;78;21119;-46
2022/08/09 07:07:54;;;;;;;4.12;1.30;;;;;;;22.71;51.27;101156.42;1787248;80;21096;-46
2022/08/09 07:10:22;;;;;;;4.22;1.50;;;;;;;22.71;51.64;101158.63;1789208;79;21073;-46
2022/08/09 07:12:49;;;;;;;4.30;1.50;;;;;;;22.71;51.74;101154.59;1789033;78;21092;-47
2022/08/09 07:15:16;;;;;;;4.50;1.65;;;;;;;22.71;51.81;101160.45;1773759;80;21058;-46
2022/08/09 07:17:43;;;;;;;3.22;1.22;;;;;;;22.71;52.71;101153.26;1789394;79;21124;-46
2022/08/09 07:20:10;;;;;;;3.10;1.22;;;;;;;22.74;53.15;101154.20;1783909;78;21081;-47
2022/08/09 07:22:37;;;;;;;4.15;1.75;;;;;;;22.76;52.11;101165.61;1788561;80;21069;-48
2022/08/09 07:25:05;;;;;;;3.58;1.50;;;;;;;22.76;52.43;101165.61;1786476;79;21049;-46
2022/08/09 07:27:32;;;;;;;3.12;1.35;;;;;;;22.79;52.49;101163.88;1787838;78;21666;-47
2022/08/09 07:29:59;;;;;;;3.55;1.60;;;;;;;22.85;52.99;101164.15;1790067;78;21496;-47
2022/08/09 07:32:26;;;;;;;5.42;1.60;;;;;;;22.92;53.21;101165.92;1781414;79;21572;-47
2022/08/09 07:34:53;;;;;;;4.00;1.75;;;;;;;23.01;53.82;101162.63;1779796;80;21517;-47
2022/08/09 07:37:19;;;;;;;5.00;1.70;;;;;;;23.12;53.60;101166.74;1767484;79;21074;-46
2022/08/09 07:39:46;;;;;;;3.65;1.42;;;;;;;23.21;52.69;101164.78;1768113;80;21093;-47
2022/08/09 07:42:13;;;;;;;5.22;1.87;;;;;;;23.25;51.14;101156.17;1773792;79;21135;-47
2022/08/09 07:44:39;;;;;;;3.75;1.25;;;;;;;23.30;51.94;101148.87;1771036;80;21054;-47
2022/08/09 07:47:06;;;;;;;3.77;1.32;;;;;;;23.31;51.41;101150.03;1773826;80;21467;-46
2022/08/09 07:49:33;;;;;;;5.05;1.62;;;;;;;23.33;51.91;101155.22;1781994;80;21088;-46
2022/08/09 07:52:00;;;;;;;2.85;1.30;;;;;;;23.39;50.89;101153.66;1780083;78;21061;-47
2022/08/09 07:54:29;;;;;;;3.08;1.30;;;;;;;23.44;50.43;101157.95;1775427;80;21120;-47
2022/08/09 07:56:55;;;;;;;4.55;1.85;;;;;;;23.48;50.52;101161.38;1771993;80;21062;-47
2022/08/09 07:59:22;;;;;;;3.35;1.35;;;;;;;23.54;50.02;101163.33;1768491;80;21061;-46
2022/08/09 08:01:48;;;;;;;2.87;1.50;;;;;;;23.65;49.89;101159.81;1778172;79;21117;-47
2022/08/09 08:04:15;;;;;;;2.92;1.40;;;;;;;23.75;49.33;101165.70;1770564;79;21072;-47
2022/08/09 08:06:41;;;;;;;3.77;1.52;;;;;;;23.77;47.67;101162.83;1772674;79;21140;-46
2022/08/09 08:09:08;;;;;;;3.47;1.30;;;;;;;23.77;48.61;101159.66;1778394;79;21046;-46
2022/08/09 08:11:37;;;;;;;3.52;1.30;;;;;;;23.77;48.55;101169.55;1774420;79;21116;-46
2022/08/09 08:14:03;;;;;;;2.95;1.30;;;;;;;23.79;47.99;101176.41;1781161;79;21055;-47
2022/08/09 08:16:30;;;;;;;2.95;1.25;;;;;;;23.80;47.64;101170.00;1771348;79;21058;-47
2022/08/09 08:18:56;;;;;;;3.12;1.20;;;;;;;23.77;47.78;101175.78;1771412;79;21133;-47
2022/08/09 08:21:24;;;;;;;3.20;1.30;;;;;;;23.75;48.43;101177.80;1776348;79;21061;-46
2022/08/09 08:23:50;;;;;;;3.25;1.40;;;;;;;23.77;48.56;101181.64;1768273;79;21041;-46
2022/08/09 08:26:17;;;;;;;3.85;1.35;;;;;;;23.76;47.76;101186.72;1775497;79;21323;-47
2022/08/09 08:28:43;;;;;;;3.45;1.30;;;;;;;23.78;48.85;101186.00;1745022;80;21560;-46
2022/08/09 08:31:10;;;;;;;3.55;0.90;;;;;;;23.78;48.71;101186.83;1774146;80;21140;-47
2022/08/09 08:33:36;;;;;;;3.42;1.37;;;;;;;23.80;49.32;101185.30;1777462;79;21086;-46
2022/08/09 08:36:04;;;;;;;4.15;1.70;;;;;;;23.85;48.49;101185.06;1777084;79;21303;-47
2022/08/09 08:38:30;;;;;;;4.05;1.50;;;;;;;23.87;47.31;101187.56;1766868;80;21544;-47
2022/08/09 08:40:57;;;;;;;3.95;1.17;;;;;;;23.90;47.51;101182.63;1771003;79;21113;-47
2022/08/09 08:43:24;;;;;;;2.92;1.40;;;;;;;23.92;47.30;101177.92;1770555;79;22074;-46
2022/08/09 08:45:54;;;;;;;4.83;1.50;;;;;;;23.92;47.73;101183.30;1764693;80;21101;-47
2022/08/09 08:48:21;;;;;;;3.75;1.52;;;;;;;23.89;48.44;101186.36;1765346;80;21120;-47
2022/08/09 08:50:48;;;;;;;2.65;1.20;;;;;;;23.88;48.34;101171.77;1768068;80;21652;-46
2022/08/09 08:53:14;;;;;;;3.42;1.32;;;;;;;23.87;48.39;101174.12;1787915;78;21045;-47
2022/08/09 08:55:44;;;;;;;3.27;1.55;;;;;;;23.89;48.85;101172.92;1789953;78;21124;-47
2022/08/09 08:58:11;;;;;;;5.25;1.20;;;;;;;23.90;48.34;101164.34;1788630;80;21068;-46
2022/08/09 09:00:40;;;;;;;3.37;1.50;;;;;;;23.94;48.22;101162.95;1798481;78;21566;-47
2022/08/09 09:03:06;;;;;;;3.62;1.65;;;;;;;23.98;47.67;101168.25;1779642;78;21050;-47
2022/08/09 09:05:33;;;;;;;3.45;1.57;;;;;;;24.00;46.71;101165.37;1783197;79;21015;-46
2022/08/09 09:08:00;;;;;;;2.80;1.32;;;;;;;23.99;46.47;101163.70;1778494;79;21135;-47
2022/08/09 09:10:26;;;;;;;5.42;1.12;;;;;;;23.98;46.16;101167.42;1779780;80;21106;-47
2022/08/09 09:12:53;;;;;;;3.62;1.20;;;;;;;24.00;45.74;101167.53;1779001;80;21110;-47
2022/08/09 09:15:20;;;;;;;2.80;1.22;;;;;;;24.02;46.37;101168.17;1780906;80;21011;-47
2022/08/09 09:17:47;;;;;;;3.30;1.07;;;;;;;24.03;45.01;101162.30;1780774;80;21050;-46
2022/08/09 09:20:14;;;;;;;2.35;0.95;;;;;;;24.03;45.96;101159.61;1783028;80;21244;-47
2022/08/09 09:22:57;;;;;;;4.17;1.20;;;;;;;24.02;46.07;101156.07;1777672;80;21015;-47
2022/08/09 09:25:41;;;;;;;2.77;1.10;;;;;;;24.02;45.85;101157.94;1781703;78;21107;-47
2022/08/09 09:28:10;;;;;;;6.03;1.27;;;;;;;23.97;45.62;101157.16;1774755;78;21515;-46
2022/08/09 09:30:55;;;;;;;4.12;1.07;;;;;;;23.92;44.42;101159.11;1778068;80;21065;-46
2022/08/09 09:33:35;;;;;;;2.77;0.90;;;;;;;23.86;44.01;101157.70;1776064;80;22215;-47
2022/08/09 09:36:05;;;;;;;2.72;0.80;;;;;;;23.81;43.89;101170.84;1782718;80;21132;-46
2022/08/09 09:38:51;;;;;;;2.77;0.88;;;;;;;23.77;43.41;101170.41;1782159;80;21045;-46
2022/08/09 09:41:31;;;;;;;2.80;0.85;;;;;;;23.75;43.16;101167.05;1782126;78;21096;-47
2022/08/09 09:44:00;;;;;;;3.58;0.90;;;;;;;23.76;42.19;101167.38;1777298;80;21062;-47
2022/08/09 09:46:37;;;;;;;3.75;1.22;;;;;;;23.77;41.70;101166.86;1786499;80;21790;-46
2022/08/09 09:49:09;;;;;;;3.27;0.95;;;;;;;23.78;41.08;101164.51;1777751;78;21511;-47
2022/08/09 09:51:38;;;;;;;2.15;0.80;;;;;;;23.75;42.07;101167.05;1793265;80;21038;-47
2022/08/09 09:54:11;;;;;;;3.30;1.32;;;;;;;23.77;43.19;101161.00;1790607;78;21053;-47
2022/08/09 09:56:40;;;;;;;2.95;1.10;;;;;;;23.80;44.26;101161.11;1791925;80;21115;-47
2022/08/09 09:59:08;;;;;;;3.83;0.98;;;;;;;23.84;44.60;101159.23;1788050;79;21167;-46
2022/08/09 10:01:35;;;;;;;2.75;1.20;;;;;;;23.86;44.02;101161.21;1750724;80;21116;-47
2022/08/09 10:04:02;;;;;;;2.95;0.90;;;;;;;23.87;44.27;101157.51;1745869;80;20987;-47
2022/08/09 10:06:39;;;;;;;4.12;1.50;;;;;;;23.91;44.33;101167.36;1771964;80;21061;-47
2022/08/09 10:09:07;;;;;;;2.87;1.02;;;;;;;23.94;44.79;101166.98;1768921;80;21058;-47
2022/08/09 10:11:34;;;;;;;3.10;1.12;;;;;;;23.99;44.79;101164.55;1765060;79;21423;-46
2022/08/09 10:14:01;;;;;;;4.22;1.20;;;;;;;24.02;45.54;101161.45;1769891;80;21105;-46
2022/08/09 10:16:33;;;;;;;5.20;1.47;;;;;;;24.06;45.10;101158.71;1717234;80;21074;-46
2022/08/09 10:19:04;;;;;;;3.08;1.35;;;;;;;24.08;45.04;101164.72;1769371;80;21124;-47
2022/08/09 10:21:33;;;;;;;2.65;1.00;;;;;;;24.07;44.96;101157.70;1767897;79;21055;-47
2022/08/09 10:24:02;;;;;;;3.50;1.10;;;;;;;24.05;45.64;101153.00;1753016;80;21100;-46
2022/08/09 10:26:29;;;;;;;3.35;1.35;;;;;;;24.04;44.99;101150.02;1743867;82;21532;-47
2022/08/09 10:28:56;;;;;;;4.47;1.32;;;;;;;24.01;45.30;101151.73;1761457;79;21108;-46
2022/08/09 10:31:23;;;;;;;2.75;1.22;;;;;;;23.99;44.94;101147.08;1771206;80;21112;-46
2022/08/09 10:33:50;;;;;;;3.52;1.40;;;;;;;23.97;45.73;101145.06;1763126;79;21061;-47
2022/08/09 10:36:17;;;;;;;2.95;1.27;;;;;;;23.98;46.33;101140.02;1760716;80;21136;-46
2022/08/09 10:38:45;;;;;;;4.60;1.87;;;;;;;23.99;45.74;101141.70;1758699;80;21396;-47
2022/08/09 10:41:13;;;;;;;4.22;1.65;;;;;;;24.01;46.01;101143.67;1760036;80;21094;-48
2022/08/09 10:43:46;;;;;;;2.90;1.37;;;;;;;24.03;45.96;101138.93;1770161;79;21047;-46
2022/08/09 10:46:44;;;;;;;5.05;1.95;;;;;;;24.03;45.89;101138.11;1765405;80;21059;-46
2022/08/09 10:49:41;;;;;;;3.72;1.47;;;;;;;24.00;47.34;101136.62;1766508;79;21066;-47
2022/08/09 10:52:41;;;;;;;3.58;1.30;;;;;;;24.01;47.99;101133.45;1769344;80;21462;-46
2022/08/09 10:55:27;;;;;;;3.27;1.50;;;;;;;23.98;47.87;101140.02;1766617;80;21100;-46
2022/08/09 10:57:54;;;;;;;3.85;1.65;;;;;;;23.96;48.08;101138.05;1765833;80;21069;-47
2022/08/09 11:00:41;;;;;;;3.00;1.32;;;;;;;23.98;48.86;101135.99;1762914;79;21062;-47
2022/08/09 11:03:23;;;;;;;3.52;1.40;;;;;;;24.02;49.23;101130.53;1775623;80;21789;-46
2022/08/09 11:06:19;;;;;;;3.62;1.22;;;;;;;24.03;48.75;101128.70;1773727;80;21007;-45
2022/08/09 11:08:47;;;;;;;3.47;1.45;;;;;;;23.98;48.32;101123.08;1677904;83;21079;-45
2022/08/09 11:11:16;;;;;;;3.37;1.42;;;;;;;23.95;48.74;101119.42;1743008;80;21066;-46
2022/08/09 11:13:44;;;;;;;3.30;1.25;;;;;;;23.95;48.98;101122.94;1793082;80;21092;-46
2022/08/09 11:16:32;;;;;;;2.75;1.30;;;;;;;23.93;48.62;101120.44;1790063;79;21791;-46
2022/08/09 11:18:58;;;;;;;3.27;1.40;;;;;;;23.93;48.82;101119.61;1789251;78;21087;-46
2022/08/09 11:21:55;;;;;;;4.87;1.70;;;;;;;23.89;47.74;101121.04;1791608;78;21061;-46
2022/08/09 11:24:22;;;;;;;4.35;1.55;;;;;;;23.86;47.89;101114.18;1768429;80;21062;-46
2022/08/09 11:26:49;;;;;;;4.55;1.60;;;;;;;23.83;48.50;101113.73;1770948;79;21016;-47
2022/08/09 11:29:55;;;;;;;3.47;1.22;;;;;;;23.80;48.57;101124.31;1785762;78;21109;-46
2022/08/09 11:33:01;;;;;;;4.05;1.40;;;;;;;23.80;47.84;101114.09;1683602;83;21094;-46
2022/08/09 11:35:43;;;;;;;2.85;1.15;;;;;;;23.76;47.81;101121.70;1764555;79;21026;-46
2022/08/09 11:38:28;;;;;;;3.50;1.27;;;;;;;23.74;48.70;101113.01;1776399;80;20996;-45
2022/08/09 11:40:55;;;;;;;3.62;1.30;;;;;;;23.74;48.14;101108.45;1781184;80;21112;-46
2022/08/09 11:43:30;;;;;;;7.72;1.30;;;;;;;23.74;47.51;101111.67;1765590;79;21248;-46
2022/08/09 11:46:00;;;;;;;;;;;;;;;23.74;47.04;101105.77;1778471;78;21042;-45
2022/08/09 11:48:32;;;;;;;3.10;1.20;;;;;;;23.76;46.09;101105.58;1759460;79;20981;-46
2022/08/09 11:51:07;;;;;;;2.85;1.07;;;;;;;23.76;46.20;101105.58;1768552;79;21049;-45
2022/08/09 11:53:39;;;;;;;3.70;1.20;;;;;;;23.77;45.98;101105.91;1771659;78;21050;-45
2022/08/09 11:56:21;;;;;;;4.47;1.10;;;;;;;23.77;44.94;101096.51;1809105;78;21102;-46
2022/08/09 11:58:55;;;;;;;3.58;1.27;;;;;;;23.77;44.98;101112.63;1789942;78;21029;-48
2022/08/09 12:01:36;;;;;;;2.77;1.10;;;;;;;23.78;42.82;101109.42;1800116;78;21033;-46